Terminal Aerodrome Forecast
Issued by NWS Cleveland, OH

Home | Current Version | Previous Version | Text Only | Print | Product List | Glossary Off
Versions: 1 2 3 4 5 6 7 8 9 10 11 12 13 14 15 16 17

000
FTUS41 KCLE 171700
TAFCAK
TAF
KCAK 171734Z 1718/1818 28005KT P6SM SCT045
     FM172300 VRB03KT P6SM SKC
     FM181100 36005KT P6SM SCT080
     FM181600 36007KT P6SM SCT040=

USA.gov is the U.S. government's official web portal to all federal, state and local government web resources and services.